createdAt,value
2019-02-23T00:00:14.349Z,60.90
2019-02-23T00:02:42.620Z,63.42
2019-02-23T00:05:10.884Z,61.83
2019-02-23T00:07:39.196Z,64.20
2019-02-23T00:10:08.102Z,61.30
2019-02-23T00:12:36.379Z,68.02
2019-02-23T00:15:06.508Z,63.92
2019-02-23T00:17:34.792Z,66.20
2019-02-23T00:20:03.436Z,64.82
2019-02-23T00:22:31.810Z,58.45
2019-02-23T00:25:00.109Z,60.23
2019-02-23T00:27:28.642Z,58.45
2019-02-23T00:29:56.929Z,60.58
2019-02-23T00:32:25.190Z,68.47
2019-02-23T00:34:53.464Z,70.03
2019-02-23T00:37:21.844Z,64.03
2019-02-23T00:39:50.276Z,66.92
2019-02-23T00:42:18.547Z,57.03
2019-02-23T00:44:46.860Z,59.53
2019-02-23T00:47:15.197Z,65.03
2019-02-23T00:49:43.464Z,65.32
2019-02-23T00:52:11.752Z,58.87
2019-02-23T00:54:40.018Z,62.00
2019-02-23T00:57:08.610Z,56.58
2019-02-23T00:59:37.158Z,54.33
2019-02-23T01:02:05.420Z,48.90
2019-02-23T01:04:33.691Z,54.05
2019-02-23T01:07:01.989Z,52.25
2019-02-23T01:09:30.249Z,55.50
2019-02-23T01:11:58.504Z,62.00
2019-02-23T01:14:27.148Z,59.25
2019-02-23T01:16:55.429Z,59.45
2019-02-23T01:19:23.771Z,54.13
2019-02-23T01:21:52.067Z,51.20
2019-02-23T01:24:20.326Z,52.40
2019-02-23T01:26:48.597Z,50.17
2019-02-23T01:29:16.908Z,51.23
2019-02-23T01:31:45.167Z,50.20
2019-02-23T01:34:13.694Z,49.58
2019-02-23T01:36:41.989Z,52.58
2019-02-23T01:39:10.257Z,49.13
2019-02-23T01:41:38.531Z,51.60
2019-02-23T01:44:06.825Z,50.40
2019-02-23T01:46:35.102Z,54.77
2019-02-23T01:49:03.426Z,49.93
2019-02-23T01:51:31.990Z,55.28
2019-02-23T01:54:00.262Z,57.62
2019-02-23T01:56:28.535Z,49.40
2019-02-23T01:58:56.827Z,52.17
2019-02-23T02:01:25.098Z,47.50
2019-02-23T02:03:53.368Z,46.58
2019-02-23T02:06:21.668Z,53.87
2019-02-23T02:08:50.015Z,50.60
2019-02-23T02:11:18.610Z,47.03
2019-02-23T02:13:46.908Z,47.08
2019-02-23T02:16:15.177Z,46.50
2019-02-23T02:18:43.717Z,45.20
2019-02-23T02:21:12.005Z,44.63
2019-02-23T02:23:40.259Z,43.02
2019-02-23T02:26:08.532Z,43.78
2019-02-23T02:28:36.824Z,44.55
2019-02-23T02:31:05.361Z,42.17
2019-02-23T02:33:33.617Z,44.67
2019-02-23T02:36:02.181Z,52.17
2019-02-23T02:38:30.440Z,50.38
2019-02-23T02:40:58.713Z,46.80
2019-02-23T02:43:27.018Z,45.48
2019-02-23T02:45:55.288Z,48.13
2019-02-23T02:48:23.563Z,49.27
2019-02-23T02:50:51.872Z,47.35
2019-02-23T02:53:20.195Z,49.50
2019-02-23T02:55:48.463Z,53.52
2019-02-23T02:58:16.770Z,50.80
2019-02-23T03:00:45.121Z,51.70
2019-02-23T03:03:13.391Z,53.10
2019-02-23T03:05:41.690Z,48.87
2019-02-23T03:08:09.945Z,53.63
2019-02-23T03:10:38.551Z,55.83
2019-02-23T03:13:06.860Z,54.27
2019-02-23T03:15:35.394Z,54.53
2019-02-23T03:18:03.677Z,54.75
2019-02-23T03:20:36.599Z,55.10
2019-02-23T03:23:01.974Z,55.38
2019-02-23T03:25:30.252Z,48.30
2019-02-23T03:27:58.626Z,51.60
2019-02-23T03:30:26.927Z,46.45
2019-02-23T03:32:55.263Z,47.43
2019-02-23T03:35:23.557Z,48.38
2019-02-23T03:37:51.842Z,48.55
2019-02-23T03:40:20.111Z,44.35
2019-02-23T03:42:48.405Z,44.80
2019-02-23T03:45:16.664Z,45.25
2019-02-23T03:47:44.936Z,43.50
2019-02-23T03:50:13.242Z,48.75
2019-02-23T03:52:41.504Z,50.33
2019-02-23T03:55:09.920Z,49.83
2019-02-23T03:57:38.259Z,45.15
2019-02-23T04:00:09.423Z,50.23
2019-02-23T04:02:37.693Z,44.00
2019-02-23T04:05:06.148Z,44.85
2019-02-23T04:07:34.405Z,43.00
2019-02-23T04:10:02.674Z,42.95
2019-02-23T04:12:31.049Z,44.53
2019-02-23T04:14:59.317Z,40.63
2019-02-23T04:17:27.577Z,43.95
2019-02-23T04:19:55.878Z,45.05
2019-02-23T04:22:24.209Z,47.15
2019-02-23T04:24:52.482Z,46.28
2019-02-23T04:27:20.764Z,40.58
2019-02-23T04:29:49.029Z,42.65
2019-02-23T04:32:17.315Z,41.90
2019-02-23T04:34:45.662Z,41.08
2019-02-23T04:37:13.921Z,43.38
2019-02-23T04:39:42.255Z,40.12
2019-02-23T04:42:10.559Z,41.30
2019-02-23T04:44:38.826Z,36.73
2019-02-23T04:47:07.084Z,42.40
2019-02-23T04:49:35.380Z,42.27
2019-02-23T04:52:03.922Z,41.23
2019-02-23T04:54:35.513Z,39.85
2019-02-23T04:57:03.786Z,39.08
2019-02-23T04:59:32.311Z,38.02
2019-02-23T05:02:00.574Z,41.70
2019-02-23T05:04:28.869Z,43.52
2019-02-23T05:06:57.392Z,39.88
2019-02-23T05:09:25.640Z,39.70
2019-02-23T05:11:53.926Z,37.20
2019-02-23T05:14:22.197Z,38.33
2019-02-23T05:16:50.544Z,40.55
2019-02-23T05:19:19.090Z,43.28
2019-02-23T05:21:47.349Z,43.92
2019-02-23T05:24:15.600Z,42.95
2019-02-23T05:26:43.887Z,37.60
2019-02-23T05:29:12.146Z,36.70
2019-02-23T05:31:40.801Z,37.65
2019-02-23T05:34:09.162Z,38.33
2019-02-23T05:36:37.429Z,43.50
2019-02-23T05:39:06.244Z,41.80
2019-02-23T05:41:34.539Z,40.75
2019-02-23T05:44:02.885Z,33.53
2019-02-23T05:46:31.159Z,32.30
2019-02-23T05:48:59.451Z,33.60
2019-02-23T05:51:38.385Z,34.05
2019-02-23T05:53:57.702Z,34.18
2019-02-23T05:56:26.000Z,35.75
2019-02-23T05:58:54.263Z,39.03
2019-02-23T06:01:22.532Z,43.78
2019-02-23T06:03:50.911Z,39.27
2019-02-23T06:06:19.205Z,35.70
2019-02-23T06:08:47.471Z,36.63
2019-02-23T06:11:15.776Z,43.98
2019-02-23T06:13:44.114Z,44.18
2019-02-23T06:16:12.457Z,42.00
2019-02-23T06:18:40.760Z,39.55
2019-02-23T06:21:09.029Z,37.90
2019-02-23T06:23:37.290Z,38.92
2019-02-23T06:26:05.593Z,39.08
2019-02-23T06:28:33.917Z,36.48
2019-02-23T06:31:02.181Z,37.17
2019-02-23T06:33:30.473Z,37.13
2019-02-23T06:35:58.745Z,35.68
2019-02-23T06:38:27.039Z,32.90
2019-02-23T06:40:55.324Z,41.63
2019-02-23T06:43:23.583Z,34.65
2019-02-23T06:45:51.850Z,31.93
2019-02-23T06:48:20.244Z,32.88
2019-02-23T06:50:48.577Z,33.08
2019-02-23T06:53:16.845Z,35.10
2019-02-23T06:55:45.129Z,33.55
2019-02-23T06:58:13.415Z,36.15
2019-02-23T07:00:41.687Z,33.28
2019-02-23T07:03:09.971Z,34.53
2019-02-23T07:05:38.528Z,28.87
2019-02-23T07:08:06.778Z,31.93
2019-02-23T07:10:35.071Z,31.17
2019-02-23T07:13:03.329Z,32.85
2019-02-23T07:15:31.599Z,33.92
2019-02-23T07:18:00.254Z,30.77
2019-02-23T07:20:28.528Z,31.77
2019-02-23T07:22:56.784Z,30.90
2019-02-23T07:25:25.071Z,32.13
2019-02-23T07:27:53.348Z,30.57
2019-02-23T07:30:21.616Z,29.82
2019-02-23T07:32:49.910Z,29.87
2019-02-23T07:35:18.456Z,28.75
2019-02-23T07:37:46.792Z,30.37
2019-02-23T07:40:16.429Z,29.23
2019-02-23T07:42:44.709Z,28.40
2019-02-23T07:45:12.982Z,28.40
2019-02-23T07:47:41.285Z,28.77
2019-02-23T07:50:15.422Z,26.42
2019-02-23T07:52:43.944Z,27.22
2019-02-23T07:55:12.853Z,27.35
2019-02-23T07:57:41.149Z,27.17
2019-02-23T08:00:12.884Z,25.90
2019-02-23T08:02:41.179Z,26.87
2019-02-23T08:05:10.091Z,26.07
2019-02-23T08:07:39.910Z,26.50
2019-02-23T08:10:12.639Z,25.60
2019-02-23T08:12:41.001Z,24.43
2019-02-23T08:15:11.028Z,23.87
2019-02-23T08:17:41.390Z,25.82
2019-02-23T08:20:11.197Z,22.85
2019-02-23T08:22:39.573Z,23.20
2019-02-23T08:25:12.813Z,22.62
2019-02-23T08:27:41.106Z,25.17
2019-02-23T08:30:17.173Z,24.18
2019-02-23T08:32:45.537Z,24.40
2019-02-23T08:35:13.901Z,24.45
2019-02-23T08:37:42.274Z,23.07
2019-02-23T08:40:13.830Z,22.30
2019-02-23T08:42:42.092Z,21.68
2019-02-23T08:45:10.936Z,20.20
2019-02-23T08:47:39.292Z,20.80
2019-02-23T08:50:10.654Z,21.07
2019-02-23T08:52:48.682Z,20.02
2019-02-23T08:55:10.070Z,19.67
2019-02-23T08:57:38.431Z,18.90
2019-02-23T09:00:15.526Z,16.60
2019-02-23T09:09:51.781Z,16.17
2019-02-23T09:12:20.128Z,17.05
2019-02-23T09:14:48.527Z,16.35
2019-02-23T09:17:17.273Z,17.12
2019-02-23T09:19:47.468Z,15.95
2019-02-23T09:22:20.823Z,16.40
2019-02-23T09:24:49.499Z,14.25
2019-02-23T09:27:18.031Z,16.95
2019-02-23T09:29:46.367Z,16.60
2019-02-23T09:32:14.800Z,14.38
2019-02-23T09:34:43.241Z,15.23
2019-02-23T09:37:11.626Z,15.75
2019-02-23T09:39:40.068Z,16.05
2019-02-23T09:42:08.432Z,16.02
2019-02-23T09:44:36.870Z,15.28
2019-02-23T09:47:05.327Z,14.47
2019-02-23T09:49:33.757Z,15.60
2019-02-23T09:52:02.066Z,15.32
2019-02-23T09:54:30.758Z,15.00
2019-02-23T09:56:59.135Z,13.95
2019-02-23T09:59:27.561Z,14.15
2019-02-23T10:01:56.092Z,14.00
2019-02-23T10:04:26.167Z,14.58
2019-02-23T10:06:54.596Z,15.55
2019-02-23T10:09:23.049Z,14.95
2019-02-23T10:11:51.717Z,14.13
2019-02-23T10:14:20.327Z,14.05
2019-02-23T10:16:48.769Z,13.60
2019-02-23T10:19:17.117Z,13.10
2019-02-23T10:21:46.723Z,14.28
2019-02-23T10:24:15.061Z,14.58
2019-02-23T10:26:43.396Z,13.30
2019-02-23T10:29:11.714Z,13.03
2019-02-23T10:31:43.616Z,13.43
2019-02-23T10:34:11.997Z,12.98
2019-02-23T10:36:40.438Z,13.35
2019-02-23T10:39:10.884Z,13.05
2019-02-23T10:41:40.852Z,13.45
2019-02-23T10:44:10.804Z,11.35
2019-02-23T10:46:39.186Z,12.80
2019-02-23T10:49:08.957Z,12.88
2019-02-23T10:54:06.781Z,12.63
2019-02-23T10:56:35.550Z,12.85
2019-02-23T10:59:03.995Z,13.18
2019-02-23T11:01:32.542Z,13.55
2019-02-23T11:04:00.881Z,12.47
2019-02-23T11:06:29.775Z,13.15
2019-02-23T11:08:58.173Z,13.53
2019-02-23T11:11:26.546Z,13.08
2019-02-23T11:13:54.866Z,14.00
2019-02-23T11:16:23.228Z,12.58
2019-02-23T11:18:51.539Z,13.60
2019-02-23T11:21:19.953Z,14.13
2019-02-23T11:23:48.386Z,11.97
2019-02-23T11:26:16.746Z,11.78
2019-02-23T11:28:45.157Z,12.03
2019-02-23T11:31:13.509Z,12.03
2019-02-23T11:33:42.199Z,10.30
2019-02-23T11:36:10.646Z,10.45
2019-02-23T11:38:38.984Z,11.05
2019-02-23T11:41:07.435Z,11.35
2019-02-23T11:43:36.194Z,11.73
2019-02-23T11:46:08.446Z,12.03
2019-02-23T11:48:34.922Z,11.03
2019-02-23T11:51:03.268Z,10.00
2019-02-23T11:53:32.121Z,10.68
2019-02-23T11:56:00.561Z,10.95
2019-02-23T11:58:29.141Z,10.45
2019-02-23T12:00:58.137Z,12.00
2019-02-23T12:03:27.021Z,10.50
2019-02-23T12:05:55.435Z,10.05
2019-02-23T12:08:23.972Z,9.35
2019-02-23T12:10:52.494Z,10.23
2019-02-23T12:13:20.956Z,9.18
2019-02-23T12:15:49.534Z,9.33
2019-02-23T12:18:18.021Z,9.85
2019-02-23T12:20:48.490Z,9.90
2019-02-23T12:23:16.908Z,8.85
2019-02-23T12:25:45.410Z,9.23
2019-02-23T12:28:13.972Z,8.78
2019-02-23T12:30:42.415Z,9.70
2019-02-23T12:33:10.897Z,9.13
2019-02-23T12:35:39.168Z,9.78
2019-02-23T12:38:07.536Z,9.95
2019-02-23T12:40:35.822Z,10.93
2019-02-23T12:43:04.236Z,11.00
2019-02-23T12:45:32.636Z,10.13
2019-02-23T12:48:01.309Z,10.55
2019-02-23T12:50:29.670Z,11.63
2019-02-23T12:53:00.791Z,11.33
2019-02-23T12:55:29.223Z,14.07
2019-02-23T12:57:59.271Z,16.50
2019-02-23T13:00:27.827Z,10.65
2019-02-23T13:03:06.060Z,11.78
2019-02-23T13:13:55.366Z,8.03
2019-02-23T13:16:26.934Z,7.95
2019-02-23T13:19:01.147Z,8.55
2019-02-23T13:21:36.045Z,8.18
2019-02-23T13:24:27.351Z,8.63
2019-02-23T13:27:14.065Z,10.20
2019-02-23T13:29:48.270Z,10.13
2019-02-23T13:32:34.877Z,10.82
2019-02-23T13:35:18.547Z,9.90
2019-02-23T13:38:14.407Z,11.97
2019-02-23T13:41:05.606Z,9.95
2019-02-23T13:43:52.451Z,10.23
2019-02-23T13:46:35.897Z,10.38
2019-02-23T13:49:13.396Z,11.50
2019-02-23T13:51:53.546Z,12.25
2019-02-23T13:54:38.332Z,12.98
2019-02-23T13:57:20.950Z,9.75
2019-02-23T14:00:08.852Z,10.25
2019-02-23T14:02:56.918Z,10.58
2019-02-23T14:05:37.370Z,12.28
2019-02-23T14:08:26.367Z,11.75
2019-02-23T14:11:09.966Z,12.15
2019-02-23T14:13:41.643Z,11.25
2019-02-23T14:16:25.255Z,10.55
2019-02-23T14:18:59.654Z,11.97
2019-02-23T14:21:31.545Z,13.05
2019-02-23T14:24:17.408Z,12.60
2019-02-23T14:27:01.082Z,13.22
2019-02-23T14:29:52.297Z,11.75
2019-02-23T14:32:35.826Z,11.10
2019-02-23T14:35:26.872Z,11.45
2019-02-23T14:38:04.528Z,11.60
2019-02-23T14:40:51.339Z,11.55
2019-02-23T14:43:28.676Z,11.08
2019-02-23T14:46:09.183Z,11.93
2019-02-23T14:49:03.619Z,11.33
2019-02-23T14:52:00.828Z,12.25
2019-02-23T14:55:00.897Z,12.47
2019-02-23T14:57:52.194Z,12.45
2019-02-23T15:00:32.892Z,12.43
2019-02-23T15:03:24.468Z,13.13
2019-02-23T15:06:02.019Z,13.93
2019-02-23T15:08:36.551Z,12.78
2019-02-23T15:11:20.098Z,13.85
2019-02-23T15:14:00.875Z,13.72
2019-02-23T15:16:53.722Z,14.05
2019-02-23T15:19:33.665Z,14.45
2019-02-23T15:29:50.891Z,13.08
2019-02-23T15:32:25.120Z,14.05
2019-02-23T15:35:21.150Z,15.32
2019-02-23T15:37:52.748Z,15.72
2019-02-23T15:40:33.256Z,14.87
2019-02-23T15:43:19.894Z,14.87
2019-02-23T15:48:59.759Z,15.83
2019-02-23T15:51:28.189Z,16.93
2019-02-23T15:53:58.208Z,15.23
2019-02-23T15:56:26.620Z,16.02
2019-02-23T15:58:55.540Z,15.32
2019-02-23T16:01:23.970Z,16.77
2019-02-23T16:03:52.536Z,15.20
2019-02-23T16:06:21.171Z,14.25
2019-02-23T16:08:49.584Z,14.23
2019-02-23T16:11:18.012Z,15.18
2019-02-23T16:13:46.418Z,14.35
2019-02-23T16:16:15.200Z,14.65
2019-02-23T16:18:43.644Z,14.55
2019-02-23T16:21:12.015Z,14.10
2019-02-23T16:23:40.448Z,13.78
2019-02-23T16:26:09.235Z,14.68
2019-02-23T16:28:37.637Z,14.28
2019-02-23T16:31:05.989Z,14.00
2019-02-23T16:33:34.402Z,15.35
2019-02-23T16:36:02.808Z,13.40
2019-02-23T16:38:31.254Z,14.28
2019-02-23T16:40:59.720Z,14.47
2019-02-23T16:43:30.303Z,14.33
2019-02-23T16:45:58.739Z,14.20
2019-02-23T16:48:27.223Z,14.73
2019-02-23T16:50:55.592Z,13.80
2019-02-23T16:53:24.004Z,15.05
2019-02-23T16:55:52.479Z,15.40
2019-02-23T16:58:20.813Z,16.23
2019-02-23T17:00:49.661Z,15.98
2019-02-23T17:03:18.022Z,15.75
2019-02-23T17:05:46.438Z,14.87
2019-02-23T17:08:15.160Z,15.55
2019-02-23T17:10:43.577Z,15.50
2019-02-23T17:13:12.000Z,16.60
2019-02-23T17:15:40.351Z,16.95
2019-02-23T17:18:08.749Z,18.32
2019-02-23T17:20:37.175Z,17.15
2019-02-23T17:23:05.546Z,17.05
2019-02-23T17:25:33.889Z,17.67
2019-02-23T17:28:02.201Z,18.52
2019-02-23T17:30:30.517Z,19.23
2019-02-23T17:32:58.922Z,25.82
2019-02-23T17:35:27.260Z,26.15
2019-02-23T17:37:55.607Z,32.05
2019-02-23T17:40:24.146Z,55.50
2019-02-23T17:42:52.568Z,83.20
2019-02-23T17:45:20.879Z,31.25
2019-02-23T17:47:49.235Z,26.30
2019-02-23T17:50:17.548Z,25.57
2019-02-23T17:52:45.855Z,20.27
2019-02-23T17:55:14.207Z,17.80
2019-02-23T17:57:42.520Z,17.32
2019-02-23T18:00:13.600Z,16.85
2019-02-23T18:02:42.051Z,17.40
2019-02-23T18:05:10.456Z,16.65
2019-02-23T18:07:38.766Z,16.17
2019-02-23T18:10:07.539Z,16.20
2019-02-23T18:12:35.913Z,15.78
2019-02-23T18:15:07.141Z,15.03
2019-02-23T18:17:35.549Z,15.15
2019-02-23T18:20:05.998Z,15.10
2019-02-23T18:22:34.308Z,14.87
2019-02-23T18:25:02.639Z,14.28
2019-02-23T18:27:31.064Z,16.60
2019-02-23T18:29:59.446Z,16.07
2019-02-23T18:32:28.109Z,16.30
2019-02-23T18:34:56.490Z,16.75
2019-02-23T18:37:24.886Z,16.32
2019-02-23T18:39:53.701Z,15.83
2019-02-23T18:42:22.053Z,15.58
2019-02-23T18:44:50.381Z,15.60
2019-02-23T18:47:19.125Z,15.80
2019-02-23T18:49:47.474Z,15.30
2019-02-23T18:52:16.233Z,15.72
2019-02-23T18:54:44.624Z,17.57
2019-02-23T18:57:12.965Z,16.77
2019-02-23T18:59:41.354Z,17.55
2019-02-23T19:02:09.767Z,17.95
2019-02-23T19:04:38.091Z,17.50
2019-02-23T19:07:06.424Z,18.00
2019-02-23T19:09:34.797Z,18.82
2019-02-23T19:12:03.203Z,18.77
2019-02-23T19:14:31.552Z,18.05
2019-02-23T19:16:59.901Z,18.85
2019-02-23T19:19:28.218Z,18.87
2019-02-23T19:21:56.551Z,17.92
2019-02-23T19:24:24.972Z,17.82
2019-02-23T19:26:53.309Z,19.70
2019-02-23T19:29:21.629Z,18.80
2019-02-23T19:31:49.973Z,18.65
2019-02-23T19:34:18.304Z,23.30
2019-02-23T19:36:48.334Z,22.20
2019-02-23T19:39:16.936Z,20.95
2019-02-23T19:41:45.290Z,20.43
2019-02-23T19:44:13.620Z,20.85
2019-02-23T19:46:45.266Z,22.90
2019-02-23T19:49:13.642Z,22.85
2019-02-23T19:51:41.958Z,21.00
2019-02-23T19:54:10.290Z,20.27
2019-02-23T19:56:46.480Z,21.70
2019-02-23T19:59:08.695Z,20.15
2019-02-23T20:01:37.108Z,20.27
2019-02-23T20:04:05.429Z,20.75
2019-02-23T20:06:34.065Z,20.97
2019-02-23T20:09:02.440Z,21.65
2019-02-23T20:11:30.780Z,20.92
2019-02-23T20:13:59.131Z,20.82
2019-02-23T20:16:27.534Z,21.17
2019-02-23T20:18:55.852Z,19.57
2019-02-23T20:21:24.216Z,20.12
2019-02-23T20:23:52.616Z,23.40
2019-02-23T20:26:20.936Z,47.20
2019-02-23T20:28:49.268Z,45.33
2019-02-23T20:31:17.632Z,40.90
2019-02-23T20:33:45.908Z,27.80
2019-02-23T20:36:14.221Z,25.37
2019-02-23T20:38:42.579Z,21.20
2019-02-23T20:41:10.920Z,20.85
2019-02-23T20:43:39.337Z,21.00
2019-02-23T20:46:07.703Z,21.97
2019-02-23T20:48:36.137Z,22.48
2019-02-23T20:51:04.666Z,21.10
2019-02-23T20:53:32.986Z,19.65
2019-02-23T20:56:01.623Z,19.37
2019-02-23T20:58:30.441Z,19.17
2019-02-23T21:00:59.231Z,18.77
2019-02-23T21:03:27.617Z,20.45
2019-02-23T21:05:55.991Z,20.32
2019-02-23T21:08:24.409Z,20.48
2019-02-23T21:10:53.247Z,21.48
2019-02-23T21:13:21.729Z,20.97
2019-02-23T21:15:50.193Z,21.42
2019-02-23T21:18:18.516Z,21.25
2019-02-23T21:20:46.818Z,23.27
2019-02-23T21:23:15.239Z,21.75
2019-02-23T21:25:43.663Z,19.87
2019-02-23T21:28:11.989Z,23.40
2019-02-23T21:30:40.311Z,22.07
2019-02-23T21:33:08.645Z,21.50
2019-02-23T21:35:36.983Z,21.37
2019-02-23T21:38:05.357Z,20.72
2019-02-23T21:40:33.664Z,20.65
2019-02-23T21:43:01.978Z,23.42
2019-02-23T21:45:30.346Z,21.12
2019-02-23T21:47:58.736Z,22.00
2019-02-23T21:50:27.116Z,21.25
2019-02-23T21:52:55.523Z,22.37
2019-02-23T21:55:23.840Z,23.20
2019-02-23T21:57:52.243Z,22.00
2019-02-23T22:00:20.677Z,22.22
2019-02-23T22:02:49.070Z,21.07
2019-02-23T22:05:17.416Z,24.10
2019-02-23T22:07:46.080Z,21.65
2019-02-23T22:10:14.339Z,20.97
2019-02-23T22:12:42.691Z,23.83
2019-02-23T22:15:11.108Z,23.70
2019-02-23T22:17:39.478Z,22.95
2019-02-23T22:20:08.009Z,23.83
2019-02-23T22:22:36.351Z,22.07
2019-02-23T22:25:04.950Z,22.70
2019-02-23T22:27:33.333Z,21.57
2019-02-23T22:30:01.806Z,23.85
2019-02-23T22:32:30.198Z,21.90
2019-02-23T22:35:15.456Z,23.22
2019-02-23T22:37:43.760Z,22.87
2019-02-23T22:40:12.099Z,21.97
2019-02-23T22:42:40.439Z,22.05
2019-02-23T22:45:08.806Z,22.10
2019-02-23T22:47:37.137Z,22.02
2019-02-23T22:50:07.751Z,22.37
2019-02-23T22:52:36.156Z,23.65
2019-02-23T22:55:05.420Z,24.67
2019-02-23T22:57:40.201Z,23.83
2019-02-23T23:00:04.404Z,23.07
2019-02-23T23:02:32.798Z,23.62
2019-02-23T23:05:01.180Z,24.27
2019-02-23T23:07:29.550Z,23.27
2019-02-23T23:09:57.926Z,23.62
2019-02-23T23:12:26.304Z,26.87
2019-02-23T23:14:54.618Z,23.62
2019-02-23T23:17:23.002Z,25.65
2019-02-23T23:19:51.439Z,23.77
2019-02-23T23:22:19.758Z,25.92
2019-02-23T23:24:48.140Z,25.25
2019-02-23T23:27:16.524Z,22.42
2019-02-23T23:29:44.968Z,21.23
2019-02-23T23:32:13.348Z,23.70
2019-02-23T23:34:41.705Z,22.48
2019-02-23T23:37:10.089Z,25.12
2019-02-23T23:39:38.413Z,21.80
2019-02-23T23:42:06.759Z,23.52
2019-02-23T23:44:35.305Z,23.65
2019-02-23T23:47:03.818Z,24.32
2019-02-23T23:49:32.203Z,20.65
2019-02-23T23:52:00.555Z,21.93
2019-02-23T23:54:28.925Z,22.70
2019-02-23T23:56:57.274Z,22.35
2019-02-23T23:59:25.602Z,23.32
